sensor_id;sensor_type;location;lat;lon;timestamp;P1;durP1;ratioP1;P2;durP2;ratioP2
20972;SDS011;10645;52.370;13.314;2024-03-07T00:02:19;28.87;;;13.90;;
20972;SDS011;10645;52.370;13.314;2024-03-07T00:04:46;23.63;;;12.18;;
20972;SDS011;10645;52.370;13.314;2024-03-07T00:07:12;17.98;;;12.98;;
20972;SDS011;10645;52.370;13.314;2024-03-07T00:09:38;28.05;;;16.02;;
20972;SDS011;10645;52.370;13.314;2024-03-07T00:12:05;20.63;;;14.57;;
20972;SDS011;10645;52.370;13.314;2024-03-07T00:14:33;21.03;;;14.00;;
20972;SDS011;10645;52.370;13.314;2024-03-07T00:17:01;20.35;;;13.13;;
20972;SDS011;10645;52.370;13.314;2024-03-07T00:19:28;24.90;;;14.67;;
20972;SDS011;10645;52.370;13.314;2024-03-07T00:21:55;23.50;;;16.83;;
20972;SDS011;10645;52.370;13.314;2024-03-07T00:24:22;29.27;;;17.40;;
20972;SDS011;10645;52.370;13.314;2024-03-07T00:26:49;21.08;;;14.05;;
20972;SDS011;10645;52.370;13.314;2024-03-07T00:29:17;31.15;;;17.00;;
20972;SDS011;10645;52.370;13.314;2024-03-07T00:31:46;31.70;;;14.20;;
20972;SDS011;10645;52.370;13.314;2024-03-07T00:34:13;30.13;;;18.40;;
20972;SDS011;10645;52.370;13.314;2024-03-07T00:36:42;23.60;;;15.93;;
20972;SDS011;10645;52.370;13.314;2024-03-07T00:39:08;20.73;;;15.57;;
20972;SDS011;10645;52.370;13.314;2024-03-07T00:41:40;29.90;;;15.97;;
20972;SDS011;10645;52.370;13.314;2024-03-07T00:44:07;29.88;;;14.55;;
20972;SDS011;10645;52.370;13.314;2024-03-07T00:46:35;27.92;;;13.27;;
20972;SDS011;10645;52.370;13.314;2024-03-07T00:49:02;33.60;;;13.10;;
20972;SDS011;10645;52.370;13.314;2024-03-07T00:51:28;23.08;;;14.77;;
20972;SDS011;10645;52.370;13.314;2024-03-07T00:53:55;20.40;;;12.90;;
20972;SDS011;10645;52.370;13.314;2024-03-07T00:56:21;25.95;;;15.77;;
20972;SDS011;10645;52.370;13.314;2024-03-07T00:58:48;23.00;;;16.23;;
20972;SDS011;10645;52.370;13.314;2024-03-07T01:01:14;23.65;;;13.63;;
20972;SDS011;10645;52.370;13.314;2024-03-07T01:03:45;19.38;;;12.32;;
20972;SDS011;10645;52.370;13.314;2024-03-07T01:06:11;23.40;;;14.82;;
20972;SDS011;10645;52.370;13.314;2024-03-07T01:08:38;28.03;;;17.93;;
20972;SDS011;10645;52.370;13.314;2024-03-07T01:11:05;29.33;;;13.95;;
20972;SDS011;10645;52.370;13.314;2024-03-07T01:13:41;27.15;;;17.52;;
20972;SDS011;10645;52.370;13.314;2024-03-07T01:16:07;21.52;;;16.88;;
20972;SDS011;10645;52.370;13.314;2024-03-07T01:18:34;37.00;;;16.58;;
20972;SDS011;10645;52.370;13.314;2024-03-07T01:21:00;26.00;;;14.53;;
20972;SDS011;10645;52.370;13.314;2024-03-07T01:23:27;41.55;;;19.77;;
20972;SDS011;10645;52.370;13.314;2024-03-07T01:25:57;21.70;;;16.07;;
20972;SDS011;10645;52.370;13.314;2024-03-07T01:28:24;18.50;;;16.02;;
20972;SDS011;10645;52.370;13.314;2024-03-07T01:30:51;21.92;;;16.17;;
20972;SDS011;10645;52.370;13.314;2024-03-07T01:33:18;20.07;;;11.43;;
20972;SDS011;10645;52.370;13.314;2024-03-07T01:35:45;37.43;;;15.03;;
20972;SDS011;10645;52.370;13.314;2024-03-07T01:38:11;23.77;;;15.00;;
20972;SDS011;10645;52.370;13.314;2024-03-07T01:40:39;21.75;;;11.07;;
20972;SDS011;10645;52.370;13.314;2024-03-07T01:43:06;32.40;;;18.48;;
20972;SDS011;10645;52.370;13.314;2024-03-07T01:45:33;25.00;;;14.43;;
20972;SDS011;10645;52.370;13.314;2024-03-07T01:48:03;27.53;;;14.87;;
20972;SDS011;10645;52.370;13.314;2024-03-07T01:50:31;26.40;;;14.37;;
20972;SDS011;10645;52.370;13.314;2024-03-07T01:52:59;26.67;;;17.03;;
20972;SDS011;10645;52.370;13.314;2024-03-07T01:55:26;23.60;;;15.20;;
20972;SDS011;10645;52.370;13.314;2024-03-07T01:57:55;23.17;;;14.97;;
20972;SDS011;10645;52.370;13.314;2024-03-07T02:00:24;24.63;;;13.83;;
20972;SDS011;10645;52.370;13.314;2024-03-07T02:02:50;35.00;;;15.73;;
20972;SDS011;10645;52.370;13.314;2024-03-07T02:05:19;33.43;;;16.50;;
20972;SDS011;10645;52.370;13.314;2024-03-07T02:07:49;22.87;;;15.07;;
20972;SDS011;10645;52.370;13.314;2024-03-07T02:10:16;19.30;;;10.60;;
20972;SDS011;10645;52.370;13.314;2024-03-07T02:12:43;17.20;;;12.63;;
20972;SDS011;10645;52.370;13.314;2024-03-07T02:15:09;18.17;;;13.83;;
20972;SDS011;10645;52.370;13.314;2024-03-07T02:17:35;12.37;;;11.20;;
20972;SDS011;10645;52.370;13.314;2024-03-07T02:20:03;16.27;;;12.93;;
20972;SDS011;10645;52.370;13.314;2024-03-07T02:22:30;25.10;;;13.40;;
20972;SDS011;10645;52.370;13.314;2024-03-07T02:24:56;27.00;;;15.20;;
20972;SDS011;10645;52.370;13.314;2024-03-07T02:27:22;17.33;;;10.40;;
20972;SDS011;10645;52.370;13.314;2024-03-07T02:29:48;18.07;;;13.47;;
20972;SDS011;10645;52.370;13.314;2024-03-07T02:32:14;17.23;;;12.87;;
20972;SDS011;10645;52.370;13.314;2024-03-07T02:34:40;26.17;;;16.17;;
20972;SDS011;10645;52.370;13.314;2024-03-07T02:37:06;29.77;;;12.53;;
20972;SDS011;10645;52.370;13.314;2024-03-07T02:39:35;22.60;;;13.80;;
20972;SDS011;10645;52.370;13.314;2024-03-07T02:42:02;28.67;;;12.33;;
20972;SDS011;10645;52.370;13.314;2024-03-07T02:44:28;13.73;;;12.20;;
20972;SDS011;10645;52.370;13.314;2024-03-07T02:46:54;12.87;;;11.57;;
20972;SDS011;10645;52.370;13.314;2024-03-07T02:49:20;22.00;;;12.33;;
20972;SDS011;10645;52.370;13.314;2024-03-07T02:51:47;18.80;;;12.70;;
20972;SDS011;10645;52.370;13.314;2024-03-07T02:54:13;26.20;;;10.63;;
20972;SDS011;10645;52.370;13.314;2024-03-07T02:56:39;19.67;;;13.57;;
20972;SDS011;10645;52.370;13.314;2024-03-07T02:59:05;15.13;;;11.00;;
20972;SDS011;10645;52.370;13.314;2024-03-07T03:01:34;21.07;;;13.23;;
20972;SDS011;10645;52.370;13.314;2024-03-07T03:04:00;13.27;;;9.63;;
20972;SDS011;10645;52.370;13.314;2024-03-07T03:06:26;23.03;;;13.37;;
20972;SDS011;10645;52.370;13.314;2024-03-07T03:08:52;17.30;;;10.37;;
20972;SDS011;10645;52.370;13.314;2024-03-07T03:11:20;20.93;;;11.33;;
20972;SDS011;10645;52.370;13.314;2024-03-07T03:13:46;31.03;;;11.80;;
20972;SDS011;10645;52.370;13.314;2024-03-07T03:16:13;10.40;;;9.00;;
20972;SDS011;10645;52.370;13.314;2024-03-07T03:18:40;22.60;;;12.77;;
20972;SDS011;10645;52.370;13.314;2024-03-07T03:21:06;24.47;;;15.70;;
20972;SDS011;10645;52.370;13.314;2024-03-07T03:23:33;23.27;;;15.00;;
20972;SDS011;10645;52.370;13.314;2024-03-07T03:26:00;14.57;;;11.73;;
20972;SDS011;10645;52.370;13.314;2024-03-07T03:28:26;14.03;;;12.70;;
20972;SDS011;10645;52.370;13.314;2024-03-07T03:30:52;22.13;;;12.53;;
20972;SDS011;10645;52.370;13.314;2024-03-07T03:33:18;35.67;;;15.70;;
20972;SDS011;10645;52.370;13.314;2024-03-07T03:35:46;23.63;;;16.47;;
20972;SDS011;10645;52.370;13.314;2024-03-07T03:38:12;16.17;;;12.50;;
20972;SDS011;10645;52.370;13.314;2024-03-07T03:40:38;20.37;;;12.53;;
20972;SDS011;10645;52.370;13.314;2024-03-07T03:43:05;21.23;;;14.90;;
20972;SDS011;10645;52.370;13.314;2024-03-07T03:45:31;21.93;;;12.67;;
20972;SDS011;10645;52.370;13.314;2024-03-07T03:47:59;24.80;;;13.90;;
20972;SDS011;10645;52.370;13.314;2024-03-07T03:50:25;14.10;;;12.23;;
20972;SDS011;10645;52.370;13.314;2024-03-07T03:52:52;15.30;;;12.53;;
20972;SDS011;10645;52.370;13.314;2024-03-07T03:55:18;17.47;;;12.40;;
20972;SDS011;10645;52.370;13.314;2024-03-07T03:57:44;24.60;;;13.57;;
20972;SDS011;10645;52.370;13.314;2024-03-07T04:00:14;26.90;;;16.80;;
20972;SDS011;10645;52.370;13.314;2024-03-07T04:02:42;20.43;;;14.27;;
20972;SDS011;10645;52.370;13.314;2024-03-07T04:05:10;13.43;;;9.73;;
20972;SDS011;10645;52.370;13.314;2024-03-07T04:07:37;21.83;;;12.90;;
20972;SDS011;10645;52.370;13.314;2024-03-07T04:10:03;20.23;;;10.50;;
20972;SDS011;10645;52.370;13.314;2024-03-07T04:12:33;16.83;;;10.70;;
20972;SDS011;10645;52.370;13.314;2024-03-07T04:15:00;30.07;;;11.87;;
20972;SDS011;10645;52.370;13.314;2024-03-07T04:17:27;26.77;;;12.93;;
20972;SDS011;10645;52.370;13.314;2024-03-07T04:19:53;61.57;;;11.93;;
20972;SDS011;10645;52.370;13.314;2024-03-07T04:22:19;22.33;;;10.93;;
20972;SDS011;10645;52.370;13.314;2024-03-07T04:24:45;19.17;;;13.07;;
20972;SDS011;10645;52.370;13.314;2024-03-07T04:27:13;13.77;;;11.37;;
20972;SDS011;10645;52.370;13.314;2024-03-07T04:29:40;18.43;;;10.27;;
20972;SDS011;10645;52.370;13.314;2024-03-07T04:32:06;21.20;;;11.07;;
20972;SDS011;10645;52.370;13.314;2024-03-07T04:34:32;20.50;;;10.70;;
20972;SDS011;10645;52.370;13.314;2024-03-07T04:36:58;32.50;;;14.20;;
20972;SDS011;10645;52.370;13.314;2024-03-07T04:39:29;14.77;;;10.93;;
20972;SDS011;10645;52.370;13.314;2024-03-07T04:41:59;19.27;;;11.70;;
20972;SDS011;10645;52.370;13.314;2024-03-07T04:44:26;13.77;;;11.43;;
20972;SDS011;10645;52.370;13.314;2024-03-07T04:46:57;20.33;;;8.83;;
20972;SDS011;10645;52.370;13.314;2024-03-07T04:49:24;85.80;;;59.47;;
20972;SDS011;10645;52.370;13.314;2024-03-07T04:51:52;26.37;;;19.60;;
20972;SDS011;10645;52.370;13.314;2024-03-07T04:54:19;17.37;;;14.40;;
20972;SDS011;10645;52.370;13.314;2024-03-07T04:56:46;26.13;;;18.70;;
20972;SDS011;10645;52.370;13.314;2024-03-07T04:59:13;21.50;;;13.10;;
20972;SDS011;10645;52.370;13.314;2024-03-07T05:01:40;18.43;;;11.13;;
20972;SDS011;10645;52.370;13.314;2024-03-07T05:04:06;15.80;;;11.53;;
20972;SDS011;10645;52.370;13.314;2024-03-07T05:06:32;13.27;;;11.63;;
20972;SDS011;10645;52.370;13.314;2024-03-07T05:09:02;17.47;;;10.30;;
20972;SDS011;10645;52.370;13.314;2024-03-07T05:11:29;13.33;;;10.93;;
20972;SDS011;10645;52.370;13.314;2024-03-07T05:13:57;13.97;;;9.83;;
20972;SDS011;10645;52.370;13.314;2024-03-07T05:16:24;20.57;;;13.03;;
20972;SDS011;10645;52.370;13.314;2024-03-07T05:18:50;14.70;;;9.40;;
20972;SDS011;10645;52.370;13.314;2024-03-07T05:21:17;13.97;;;10.87;;
20972;SDS011;10645;52.370;13.314;2024-03-07T05:24:13;13.60;;;9.00;;
20972;SDS011;10645;52.370;13.314;2024-03-07T05:26:40;10.80;;;9.90;;
20972;SDS011;10645;52.370;13.314;2024-03-07T05:29:07;12.53;;;11.27;;
20972;SDS011;10645;52.370;13.314;2024-03-07T05:31:35;14.77;;;9.90;;
20972;SDS011;10645;52.370;13.314;2024-03-07T05:34:06;18.37;;;11.10;;
20972;SDS011;10645;52.370;13.314;2024-03-07T05:36:36;10.50;;;9.03;;
20972;SDS011;10645;52.370;13.314;2024-03-07T05:39:12;13.63;;;10.80;;
20972;SDS011;10645;52.370;13.314;2024-03-07T05:41:41;26.90;;;13.83;;
20972;SDS011;10645;52.370;13.314;2024-03-07T05:44:08;18.00;;;11.27;;
20972;SDS011;10645;52.370;13.314;2024-03-07T05:46:37;14.33;;;9.73;;
20972;SDS011;10645;52.370;13.314;2024-03-07T05:49:11;14.73;;;9.93;;
20972;SDS011;10645;52.370;13.314;2024-03-07T05:51:38;18.37;;;11.70;;
20972;SDS011;10645;52.370;13.314;2024-03-07T05:54:04;16.17;;;9.37;;
20972;SDS011;10645;52.370;13.314;2024-03-07T05:56:33;15.57;;;8.13;;
20972;SDS011;10645;52.370;13.314;2024-03-07T05:59:02;15.53;;;13.03;;
20972;SDS011;10645;52.370;13.314;2024-03-07T06:01:33;18.93;;;11.03;;
20972;SDS011;10645;52.370;13.314;2024-03-07T06:04:03;11.23;;;7.97;;
20972;SDS011;10645;52.370;13.314;2024-03-07T06:06:33;11.77;;;7.90;;
20972;SDS011;10645;52.370;13.314;2024-03-07T06:09:03;13.27;;;9.97;;
20972;SDS011;10645;52.370;13.314;2024-03-07T06:11:35;10.37;;;8.83;;
20972;SDS011;10645;52.370;13.314;2024-03-07T06:14:02;18.60;;;9.63;;
20972;SDS011;10645;52.370;13.314;2024-03-07T06:16:35;14.27;;;12.53;;
20972;SDS011;10645;52.370;13.314;2024-03-07T06:19:04;11.17;;;8.47;;
20972;SDS011;10645;52.370;13.314;2024-03-07T06:21:33;12.87;;;9.90;;
20972;SDS011;10645;52.370;13.314;2024-03-07T06:24:00;9.67;;;8.40;;
20972;SDS011;10645;52.370;13.314;2024-03-07T06:26:27;9.63;;;7.73;;
20972;SDS011;10645;52.370;13.314;2024-03-07T06:29:10;12.67;;;8.10;;
20972;SDS011;10645;52.370;13.314;2024-03-07T06:31:39;13.93;;;12.63;;
20972;SDS011;10645;52.370;13.314;2024-03-07T06:34:07;18.50;;;10.50;;
20972;SDS011;10645;52.370;13.314;2024-03-07T06:36:34;17.07;;;9.97;;
20972;SDS011;10645;52.370;13.314;2024-03-07T06:39:01;21.43;;;10.17;;
20972;SDS011;10645;52.370;13.314;2024-03-07T06:41:28;8.33;;;6.00;;
20972;SDS011;10645;52.370;13.314;2024-03-07T06:43:55;12.90;;;9.20;;
20972;SDS011;10645;52.370;13.314;2024-03-07T06:46:21;12.53;;;10.40;;
20972;SDS011;10645;52.370;13.314;2024-03-07T06:48:47;11.67;;;10.37;;
20972;SDS011;10645;52.370;13.314;2024-03-07T06:51:13;9.53;;;8.50;;
20972;SDS011;10645;52.370;13.314;2024-03-07T06:53:39;9.27;;;8.77;;
20972;SDS011;10645;52.370;13.314;2024-03-07T06:56:05;17.37;;;8.30;;
20972;SDS011;10645;52.370;13.314;2024-03-07T06:58:32;14.10;;;12.17;;
20972;SDS011;10645;52.370;13.314;2024-03-07T07:00:58;9.40;;;8.43;;
20972;SDS011;10645;52.370;13.314;2024-03-07T07:03:26;9.83;;;8.40;;
20972;SDS011;10645;52.370;13.314;2024-03-07T07:05:54;9.23;;;8.43;;
20972;SDS011;10645;52.370;13.314;2024-03-07T07:08:20;10.67;;;9.57;;
20972;SDS011;10645;52.370;13.314;2024-03-07T07:10:47;10.70;;;9.17;;
20972;SDS011;10645;52.370;13.314;2024-03-07T07:13:13;10.17;;;7.20;;
20972;SDS011;10645;52.370;13.314;2024-03-07T07:15:39;10.40;;;6.50;;
20972;SDS011;10645;52.370;13.314;2024-03-07T07:18:06;7.63;;;6.97;;
20972;SDS011;10645;52.370;13.314;2024-03-07T07:20:33;13.10;;;7.17;;
20972;SDS011;10645;52.370;13.314;2024-03-07T07:23:02;13.03;;;6.40;;
20972;SDS011;10645;52.370;13.314;2024-03-07T07:25:29;10.83;;;6.97;;
20972;SDS011;10645;52.370;13.314;2024-03-07T07:27:56;9.53;;;7.33;;
20972;SDS011;10645;52.370;13.314;2024-03-07T07:30:22;10.93;;;8.13;;
20972;SDS011;10645;52.370;13.314;2024-03-07T07:32:49;7.60;;;6.87;;
20972;SDS011;10645;52.370;13.314;2024-03-07T07:35:16;8.97;;;6.87;;
20972;SDS011;10645;52.370;13.314;2024-03-07T07:37:49;11.80;;;6.63;;
20972;SDS011;10645;52.370;13.314;2024-03-07T07:40:19;10.63;;;7.67;;
20972;SDS011;10645;52.370;13.314;2024-03-07T07:42:51;9.67;;;6.83;;
20972;SDS011;10645;52.370;13.314;2024-03-07T07:45:18;8.47;;;5.83;;
20972;SDS011;10645;52.370;13.314;2024-03-07T07:47:48;13.83;;;7.90;;
20972;SDS011;10645;52.370;13.314;2024-03-07T07:50:16;13.83;;;7.67;;
20972;SDS011;10645;52.370;13.314;2024-03-07T07:52:45;10.03;;;6.40;;
20972;SDS011;10645;52.370;13.314;2024-03-07T07:55:22;8.97;;;6.00;;
20972;SDS011;10645;52.370;13.314;2024-03-07T07:57:52;8.50;;;7.00;;
20972;SDS011;10645;52.370;13.314;2024-03-07T08:00:19;12.33;;;7.63;;
20972;SDS011;10645;52.370;13.314;2024-03-07T08:02:51;12.83;;;7.83;;
20972;SDS011;10645;52.370;13.314;2024-03-07T08:05:20;12.17;;;6.97;;
20972;SDS011;10645;52.370;13.314;2024-03-07T08:07:55;12.37;;;11.17;;
20972;SDS011;10645;52.370;13.314;2024-03-07T08:10:26;10.57;;;5.90;;
20972;SDS011;10645;52.370;13.314;2024-03-07T08:12:56;8.07;;;7.27;;
20972;SDS011;10645;52.370;13.314;2024-03-07T08:15:24;6.53;;;4.87;;
20972;SDS011;10645;52.370;13.314;2024-03-07T08:17:51;9.20;;;7.83;;
20972;SDS011;10645;52.370;13.314;2024-03-07T08:20:18;13.90;;;6.57;;
20972;SDS011;10645;52.370;13.314;2024-03-07T08:22:46;12.50;;;7.13;;
20972;SDS011;10645;52.370;13.314;2024-03-07T08:25:16;7.87;;;5.80;;
20972;SDS011;10645;52.370;13.314;2024-03-07T08:27:44;9.07;;;7.80;;
20972;SDS011;10645;52.370;13.314;2024-03-07T08:30:11;9.10;;;5.37;;
20972;SDS011;10645;52.370;13.314;2024-03-07T08:32:48;15.23;;;8.13;;
20972;SDS011;10645;52.370;13.314;2024-03-07T08:35:15;7.13;;;6.40;;
20972;SDS011;10645;52.370;13.314;2024-03-07T08:37:42;11.17;;;7.27;;
20972;SDS011;10645;52.370;13.314;2024-03-07T08:40:12;10.97;;;7.33;;
20972;SDS011;10645;52.370;13.314;2024-03-07T08:42:48;8.40;;;6.10;;
20972;SDS011;10645;52.370;13.314;2024-03-07T08:45:16;8.07;;;6.23;;
20972;SDS011;10645;52.370;13.314;2024-03-07T08:47:45;9.97;;;5.53;;
20972;SDS011;10645;52.370;13.314;2024-03-07T08:50:12;6.47;;;4.77;;
20972;SDS011;10645;52.370;13.314;2024-03-07T08:52:39;6.00;;;5.15;;
20972;SDS011;10645;52.370;13.314;2024-03-07T08:55:06;11.27;;;6.80;;
20972;SDS011;10645;52.370;13.314;2024-03-07T08:57:36;9.82;;;6.78;;
20972;SDS011;10645;52.370;13.314;2024-03-07T09:00:03;8.18;;;5.95;;
20972;SDS011;10645;52.370;13.314;2024-03-07T09:02:49;5.57;;;5.07;;
20972;SDS011;10645;52.370;13.314;2024-03-07T09:05:17;10.75;;;6.07;;
20972;SDS011;10645;52.370;13.314;2024-03-07T09:07:44;6.35;;;5.30;;
20972;SDS011;10645;52.370;13.314;2024-03-07T09:10:12;5.50;;;5.07;;
20972;SDS011;10645;52.370;13.314;2024-03-07T09:12:40;12.20;;;6.65;;
20972;SDS011;10645;52.370;13.314;2024-03-07T09:15:06;7.70;;;6.22;;
20972;SDS011;10645;52.370;13.314;2024-03-07T09:17:33;5.22;;;4.03;;
20972;SDS011;10645;52.370;13.314;2024-03-07T09:19:59;8.27;;;3.70;;
20972;SDS011;10645;52.370;13.314;2024-03-07T09:22:25;6.07;;;4.28;;
20972;SDS011;10645;52.370;13.314;2024-03-07T09:24:51;5.35;;;4.72;;
20972;SDS011;10645;52.370;13.314;2024-03-07T09:27:17;6.45;;;5.82;;
20972;SDS011;10645;52.370;13.314;2024-03-07T09:29:45;6.38;;;4.90;;
20972;SDS011;10645;52.370;13.314;2024-03-07T09:32:13;7.15;;;4.22;;
20972;SDS011;10645;52.370;13.314;2024-03-07T09:34:39;6.95;;;6.18;;
20972;SDS011;10645;52.370;13.314;2024-03-07T09:37:05;8.50;;;4.28;;
20972;SDS011;10645;52.370;13.314;2024-03-07T09:39:34;5.15;;;4.45;;
20972;SDS011;10645;52.370;13.314;2024-03-07T09:42:01;5.60;;;4.07;;
20972;SDS011;10645;52.370;13.314;2024-03-07T09:44:28;4.88;;;4.47;;
20972;SDS011;10645;52.370;13.314;2024-03-07T09:46:55;5.40;;;3.00;;
20972;SDS011;10645;52.370;13.314;2024-03-07T09:49:24;5.60;;;4.20;;
20972;SDS011;10645;52.370;13.314;2024-03-07T09:51:50;11.98;;;4.50;;
20972;SDS011;10645;52.370;13.314;2024-03-07T09:54:20;5.20;;;4.45;;
20972;SDS011;10645;52.370;13.314;2024-03-07T09:56:53;5.32;;;4.88;;
20972;SDS011;10645;52.370;13.314;2024-03-07T09:59:20;6.93;;;5.05;;
20972;SDS011;10645;52.370;13.314;2024-03-07T10:01:50;4.68;;;4.18;;
20972;SDS011;10645;52.370;13.314;2024-03-07T10:04:22;6.65;;;4.72;;
20972;SDS011;10645;52.370;13.314;2024-03-07T10:07:11;7.18;;;4.07;;
20972;SDS011;10645;52.370;13.314;2024-03-07T10:09:39;5.53;;;4.35;;
20972;SDS011;10645;52.370;13.314;2024-03-07T10:12:07;4.88;;;4.00;;
20972;SDS011;10645;52.370;13.314;2024-03-07T10:14:38;5.38;;;4.20;;
20972;SDS011;10645;52.370;13.314;2024-03-07T10:17:05;7.40;;;4.55;;
20972;SDS011;10645;52.370;13.314;2024-03-07T10:19:31;5.78;;;4.63;;
20972;SDS011;10645;52.370;13.314;2024-03-07T10:21:57;6.28;;;4.22;;
20972;SDS011;10645;52.370;13.314;2024-03-07T10:24:26;5.57;;;3.78;;
20972;SDS011;10645;52.370;13.314;2024-03-07T10:26:53;9.75;;;5.95;;
20972;SDS011;10645;52.370;13.314;2024-03-07T10:29:23;7.10;;;4.40;;
20972;SDS011;10645;52.370;13.314;2024-03-07T10:31:50;7.60;;;3.72;;
20972;SDS011;10645;52.370;13.314;2024-03-07T10:34:16;7.88;;;3.75;;
20972;SDS011;10645;52.370;13.314;2024-03-07T10:36:42;4.65;;;4.20;;
20972;SDS011;10645;52.370;13.314;2024-03-07T10:39:09;4.90;;;3.30;;
20972;SDS011;10645;52.370;13.314;2024-03-07T10:41:47;8.15;;;4.78;;
20972;SDS011;10645;52.370;13.314;2024-03-07T10:44:18;4.25;;;3.85;;
20972;SDS011;10645;52.370;13.314;2024-03-07T10:46:49;6.20;;;4.10;;
20972;SDS011;10645;52.370;13.314;2024-03-07T10:49:18;4.45;;;3.88;;
20972;SDS011;10645;52.370;13.314;2024-03-07T10:55:01;4.53;;;4.10;;
20972;SDS011;10645;52.370;13.314;2024-03-07T10:57:52;2.78;;;2.58;;
20972;SDS011;10645;52.370;13.314;2024-03-07T11:00:31;9.45;;;5.82;;
20972;SDS011;10645;52.370;13.314;2024-03-07T11:03:02;7.45;;;4.63;;
20972;SDS011;10645;52.370;13.314;2024-03-07T11:05:34;7.22;;;3.58;;
20972;SDS011;10645;52.370;13.314;2024-03-07T11:08:02;5.53;;;5.13;;
20972;SDS011;10645;52.370;13.314;2024-03-07T11:10:36;6.15;;;3.83;;
20972;SDS011;10645;52.370;13.314;2024-03-07T11:13:06;3.15;;;2.95;;
20972;SDS011;10645;52.370;13.314;2024-03-07T11:15:35;9.02;;;4.35;;
20972;SDS011;10645;52.370;13.314;2024-03-07T11:18:02;4.30;;;3.70;;
20972;SDS011;10645;52.370;13.314;2024-03-07T11:20:36;8.27;;;4.45;;
20972;SDS011;10645;52.370;13.314;2024-03-07T11:23:49;7.43;;;3.95;;
20972;SDS011;10645;52.370;13.314;2024-03-07T11:25:53;4.47;;;4.05;;
20972;SDS011;10645;52.370;13.314;2024-03-07T11:28:27;4.75;;;3.83;;
20972;SDS011;10645;52.370;13.314;2024-03-07T11:30:54;4.13;;;3.72;;
20972;SDS011;10645;52.370;13.314;2024-03-07T11:33:32;8.60;;;5.05;;
20972;SDS011;10645;52.370;13.314;2024-03-07T11:35:59;5.70;;;5.18;;
20972;SDS011;10645;52.370;13.314;2024-03-07T11:38:30;5.72;;;4.80;;
20972;SDS011;10645;52.370;13.314;2024-03-07T11:41:00;5.95;;;4.20;;
20972;SDS011;10645;52.370;13.314;2024-03-07T11:43:31;5.38;;;4.15;;
20972;SDS011;10645;52.370;13.314;2024-03-07T11:45:58;5.65;;;4.82;;
20972;SDS011;10645;52.370;13.314;2024-03-07T11:48:25;9.23;;;4.65;;
20972;SDS011;10645;52.370;13.314;2024-03-07T11:50:51;11.77;;;4.45;;
20972;SDS011;10645;52.370;13.314;2024-03-07T11:53:17;5.95;;;4.55;;
20972;SDS011;10645;52.370;13.314;2024-03-07T11:55:43;6.65;;;6.03;;
20972;SDS011;10645;52.370;13.314;2024-03-07T11:58:19;7.03;;;4.63;;
20972;SDS011;10645;52.370;13.314;2024-03-07T12:00:49;6.00;;;4.32;;
20972;SDS011;10645;52.370;13.314;2024-03-07T12:03:17;6.00;;;4.25;;
20972;SDS011;10645;52.370;13.314;2024-03-07T12:05:47;5.65;;;4.93;;
20972;SDS011;10645;52.370;13.314;2024-03-07T12:08:14;5.88;;;4.18;;
20972;SDS011;10645;52.370;13.314;2024-03-07T12:10:42;8.45;;;4.28;;
20972;SDS011;10645;52.370;13.314;2024-03-07T12:13:09;8.50;;;5.10;;
20972;SDS011;10645;52.370;13.314;2024-03-07T12:15:42;6.28;;;4.15;;
20972;SDS011;10645;52.370;13.314;2024-03-07T12:18:09;4.28;;;4.03;;
20972;SDS011;10645;52.370;13.314;2024-03-07T12:20:36;9.57;;;5.45;;
20972;SDS011;10645;52.370;13.314;2024-03-07T12:23:04;4.38;;;3.38;;
20972;SDS011;10645;52.370;13.314;2024-03-07T12:25:43;9.88;;;4.55;;
20972;SDS011;10645;52.370;13.314;2024-03-07T12:28:10;5.78;;;5.03;;
20972;SDS011;10645;52.370;13.314;2024-03-07T12:33:14;6.63;;;5.75;;
20972;SDS011;10645;52.370;13.314;2024-03-07T12:35:49;16.33;;;6.25;;
20972;SDS011;10645;52.370;13.314;2024-03-07T12:38:18;5.78;;;4.57;;
20972;SDS011;10645;52.370;13.314;2024-03-07T12:40:45;5.47;;;4.93;;
20972;SDS011;10645;52.370;13.314;2024-03-07T12:43:18;14.07;;;4.00;;
20972;SDS011;10645;52.370;13.314;2024-03-07T12:45:49;5.88;;;4.30;;
20972;SDS011;10645;52.370;13.314;2024-03-07T12:48:16;5.07;;;3.65;;
20972;SDS011;10645;52.370;13.314;2024-03-07T12:50:46;4.82;;;4.32;;
20972;SDS011;10645;52.370;13.314;2024-03-07T12:53:19;5.97;;;4.97;;
20972;SDS011;10645;52.370;13.314;2024-03-07T12:55:47;7.40;;;5.95;;
20972;SDS011;10645;52.370;13.314;2024-03-07T12:58:13;4.72;;;3.30;;
20972;SDS011;10645;52.370;13.314;2024-03-07T13:00:41;8.07;;;4.45;;
20972;SDS011;10645;52.370;13.314;2024-03-07T13:03:08;8.18;;;4.90;;
20972;SDS011;10645;52.370;13.314;2024-03-07T13:05:35;5.95;;;5.35;;
20972;SDS011;10645;52.370;13.314;2024-03-07T13:08:08;4.85;;;3.80;;
20972;SDS011;10645;52.370;13.314;2024-03-07T13:10:39;4.35;;;3.78;;
20972;SDS011;10645;52.370;13.314;2024-03-07T13:13:05;10.25;;;4.72;;
20972;SDS011;10645;52.370;13.314;2024-03-07T13:15:31;4.97;;;4.22;;
20972;SDS011;10645;52.370;13.314;2024-03-07T13:17:58;7.55;;;5.05;;
20972;SDS011;10645;52.370;13.314;2024-03-07T13:20:25;9.05;;;4.90;;
20972;SDS011;10645;52.370;13.314;2024-03-07T13:22:55;7.47;;;5.20;;
20972;SDS011;10645;52.370;13.314;2024-03-07T13:25:24;6.80;;;3.50;;
20972;SDS011;10645;52.370;13.314;2024-03-07T13:27:59;9.60;;;3.70;;
20972;SDS011;10645;52.370;13.314;2024-03-07T13:30:33;4.97;;;3.17;;
20972;SDS011;10645;52.370;13.314;2024-03-07T13:33:02;5.78;;;3.60;;
20972;SDS011;10645;52.370;13.314;2024-03-07T13:35:29;7.13;;;5.30;;
20972;SDS011;10645;52.370;13.314;2024-03-07T13:37:55;5.88;;;5.03;;
20972;SDS011;10645;52.370;13.314;2024-03-07T13:40:22;4.22;;;3.60;;
20972;SDS011;10645;52.370;13.314;2024-03-07T13:42:54;6.05;;;5.18;;
20972;SDS011;10645;52.370;13.314;2024-03-07T13:45:22;6.20;;;5.57;;
20972;SDS011;10645;52.370;13.314;2024-03-07T13:47:52;10.27;;;6.65;;
20972;SDS011;10645;52.370;13.314;2024-03-07T13:50:20;6.35;;;4.63;;
20972;SDS011;10645;52.370;13.314;2024-03-07T13:52:53;9.32;;;5.15;;
20972;SDS011;10645;52.370;13.314;2024-03-07T14:12:54;7.97;;;5.30;;
20972;SDS011;10645;52.370;13.314;2024-03-07T14:15:57;6.60;;;4.82;;
20972;SDS011;10645;52.370;13.314;2024-03-07T14:21:47;3.88;;;3.47;;
20972;SDS011;10645;52.370;13.314;2024-03-07T14:24:31;5.32;;;3.17;;
20972;SDS011;10645;52.370;13.314;2024-03-07T14:32:21;6.80;;;4.97;;
20972;SDS011;10645;52.370;13.314;2024-03-07T14:35:31;7.68;;;6.25;;
20972;SDS011;10645;52.370;13.314;2024-03-07T14:37:52;4.38;;;3.85;;
20972;SDS011;10645;52.370;13.314;2024-03-07T14:40:28;5.10;;;4.05;;
20972;SDS011;10645;52.370;13.314;2024-03-07T14:42:54;3.97;;;3.42;;
20972;SDS011;10645;52.370;13.314;2024-03-07T14:45:26;7.10;;;6.32;;
20972;SDS011;10645;52.370;13.314;2024-03-07T14:47:56;7.68;;;5.72;;
20972;SDS011;10645;52.370;13.314;2024-03-07T14:50:22;4.78;;;3.85;;
20972;SDS011;10645;52.370;13.314;2024-03-07T14:52:53;7.63;;;5.03;;
20972;SDS011;10645;52.370;13.314;2024-03-07T14:55:19;7.35;;;5.22;;
20972;SDS011;10645;52.370;13.314;2024-03-07T14:57:45;10.07;;;5.97;;
20972;SDS011;10645;52.370;13.314;2024-03-07T15:00:12;6.90;;;5.68;;
20972;SDS011;10645;52.370;13.314;2024-03-07T15:02:48;6.32;;;5.72;;